Tiempo atmosférico en la estación meteorológica de Calamocha, Teruel (890 m.)

Fecha
DESCASC
Temp. máxima en grados centígrados (hora)
DESCASC
Temp. mínima en grados centígrados (hora)
DESCASC
Temp. media en grados centígrados
DESCASC
Racha de viento máxima en m/sg (hora)
DESCASC
Velocidad máxima media en intervalos de 10 minutos(hora)
DESCASC
Precipitaciones diarias en mm
DESCASC
Precipitaciones de 00:00 a 06:00 en mm
DESCASC
Precipitaciones de 06:00 a 12:00 en mm
DESCASC
Precipitaciones de 12:00 a 18:00 en mm
DESCASC
Precipitaciones de 18:00 a 24:00 en mm
DESCASC
17-08-2017 36.5 (17:50) 13.6 (07:30) 25.1 10.28 (20:00) 7.22 (20:00) 0 0 0 0 0
16-08-2017 33.1 (15:50) 16 (07:30) 24.5 8.61 (19:10) 4.72 (20:40) 0 0 0 0 0
15-08-2017 35 (14:10) 16.2 (00:00) 25.6 14.44 (16:30) 10 (18:10) 0 0 0 0 0
14-08-2017 35.2 (17:20) 14.5 (07:00) 24.9 10.83 (20:00) 5.83 (20:30) 0 0 0 0 0
13-08-2017 33.2 (16:20) 9.6 (00:00) 21.4 11.67 (20:50) 8.89 (21:00) 0 0 0 0 0
12-08-2017 30.8 (17:10) 6.5 (00:00) 18.6 7.5 (17:10) 3.61 (19:30) 0 0 0 0 0
11-08-2017 26.5 (17:20) 6.7 (00:00) 16.6 8.89 (20:00) 5.28 (20:20) 0 0 0 0 0
10-08-2017 22.2 (15:50) 6.3 (00:00) 14.3 10.83 (17:30) 5.83 (20:10) 0 0 0 0 0
09-08-2017 20.4 (14:20) 10.3 (00:00) 15.3 12.5 (17:10) 6.39 (16:30) 0 0 0 0 0
08-08-2017 26.6 (16:40) 14.5 (00:00) 20.6 10 (20:00) 4.72 (18:10) 0 0 0 0 0
07-08-2017 34.9 (17:00) 18.3 (00:00) 26.6 15 (17:40) 8.06 (18:10) 0 0 0 0 0
06-08-2017 30.6 (16:00) 14.3 (00:00) 22.5 11.39 (19:30) 7.5 (19:30) 0 0 0 0 0
05-08-2017 35.8 (13:40) 17.5 (00:00) 26.6 10.28 (15:30) 6.11 (18:30) 0 0 0 0 0
04-08-2017 36.9 (18:30) 15.2 (00:00) 26.1 8.33 (19:10) 4.44 (20:00) 0 0 0 0 0
03-08-2017 36.8 (18:00) 14.9 (00:00) 25.8 8.06 (20:50) 5.83 (21:40) 0 0 0 0 0
02-08-2017 30.1 (18:20) 18.2 (00:00) 24.2 14.17 (11:20) 8.33 (14:30) 1.8 0 0.4 1.4 0
01-08-2017 34.5 (18:00) 16.5 (00:00) 25.5 11.94 (23:50) 5.28 (23:50) 0 0 0 0 0
31-07-2017 36.9 (17:00) 16 (00:00) 26.5 13.61 (15:50) 6.94 (13:50) 0 0 0 0 0
30-07-2017 36 (16:10) 13.9 (00:00) 24.9 13.06 (14:30) 6.67 (14:00) 0 0 0 0 0
29-07-2017 35.4 (16:20) 14.6 (00:00) 25 9.72 (15:20) 5.28 (13:50) 0 0 0 0 0
28-07-2017 35 (15:30) 15.1 (00:00) 25.1 9.72 (19:00) 6.39 (19:00) 0 0 0 0 0
27-07-2017 36.4 (18:10) 13.3 (00:00) 24.9 9.44 (20:30) 6.67 (20:30) 0 0 0 0 0
26-07-2017 30.6 (17:50) 8.4 (00:00) 19.5 7.5 (20:10) 3.89 (20:40) 0 0 0 0 0
25-07-2017 25.6 (15:50) 10.9 (00:00) 18.3 9.72 (17:10) 5.28 (19:20) 0 0 0 0 0
24-07-2017 27.1 (17:10) 14 (00:00) 20.6 13.61 (20:50) 6.67 (20:50) 0 0 0 0 0
23-07-2017 29.2 (19:30) 13.5 (00:00) 21.4 10 (16:10) 7.22 (16:00) 0 0 0 0 0
22-07-2017 33.7 (15:50) 13.8 (00:00) 23.8 10 (16:10) 4.72 (16:10) 0 0 0 0 0
21-07-2017 29.8 (17:00) 15 (00:00) 22.4 9.72 (20:20) 6.94 (19:20) 0 0 0 0 0
20-07-2017 30 (15:00) 15.2 (00:00) 22.6 9.44 (16:40) 5 (19:50) 0 0 0 0 0
19-07-2017 33.2 (17:00) 18.6 (00:00) 25.9 15.83 (00:50) 8.06 (00:50) 0.2 0.2 0 0 0

Gráficas

Temp. máximas Temp. mínimas Temp. medias Precipitaciones Rachas de viento máximas Velocidades máximas media en intervalos de 10 minutos

Datos horarios

Fecha y hora oficial Temperatura (ºC) Velocidad del viento (km/h) Dirección del viento Racha (km/h) Dirección de racha Precipitación (mm) Presión (hPa) Tendencia (hPa) Humedad (%)
2017-08-17 23:00:00 27 15 Este 32 Este 0 918.9 1.2 34
2017-08-17 22:00:00 28.3 26 Este 37 Este 0 918.4 0.9 31
2017-08-17 21:00:00 29.8 13 Este 33 Este 0 918.3 0.6 28
2017-08-17 20:00:00 32 26 Este 37 Este 0 917.7 -0.4 25
2017-08-17 19:00:00 34.3 22 Este 34 Este 0 917.5 -1.1 21
2017-08-17 18:00:00 36.2 6 Sur 19 Nordeste 0 917.7 -1.7 19
2017-08-17 17:00:00 35.3 8 Nordeste 18 Nordeste 0 918.1 -2 19
2017-08-17 16:00:00 34.9 5 Oeste 18 Nordeste 0 918.6 -2 23
2017-08-17 15:00:00 34 4 Noroeste 10 Norte 0 919.4 -1.6 26
2017-08-17 14:00:00 32.7 5 Oeste 11 Sudoeste 0 920.1 -1.3 28
2017-08-17 13:00:00 30.2 5 Oeste 13 Oeste 0 920.6 -1 36
2017-08-17 12:00:00 28.3 5 Oeste 9 Oeste 0 921 -0.7 34
2017-08-17 11:00:00 24.7 4 Oeste 7 Oeste 0 921.4 0 36
2017-08-17 10:00:00 21.3 2 Sudoeste 4 Oeste 0 921.6 0.2 47
2017-08-17 09:00:00 18.1 0 Calma 8 Sudeste 0 921.7 0.4 55
2017-08-17 08:00:00 14.1 2 Noroeste 3 Noroeste 0 921.4 0 63
2017-08-17 07:00:00 13.8 2 Nordeste 5 Noroeste 0 921.4 -0.1 60
2017-08-17 06:00:00 14.3 0 Calma 4 Oeste 0 921.3 0 60
2017-08-17 05:00:00 15.1 0 Calma 5 Norte 0 921.4 -0.3 55
2017-08-17 04:00:00 16.3 2 Norte 5 Nordeste 0 921.5 -0.2 49
2017-08-17 03:00:00 18 2 Sudeste 7 Noroeste 0 921.3 -0.5 41
2017-08-17 02:00:00 19.1 5 Norte 11 Norte 0 921.7 0.3 37
2017-08-17 01:00:00 20.2 6 Norte 19 Nordeste 0 921.7 0.8 46
2017-08-17 00:00:00 21.1 5 Norte 22 Norte 0 921.8 1.7 49
2017-08-16 23:00:00 23 5 Norte 18 Nordeste 0 921.4 2 52
2017-08-16 22:00:00 24.8 8 Norte 18 Norte 0 920.9 2.2 46
2017-08-16 21:00:00 27.2 13 Este 26 Este 0 920.1 1.4 41
2017-08-16 20:00:00 29.4 14 Nordeste 31 Nordeste 0 919.4 0.8 36
2017-08-16 19:00:00 30.9 13 Nordeste 29 Nordeste 0 918.7 -0.1 32
2017-08-16 18:00:00 31.4 15 Norte 28 Norte 0 918.7 -0.5 33
2017-08-16 17:00:00 32 12 Nordeste 27 Norte 0 918.6 -0.9 31
2017-08-16 16:00:00 32.5 7 Nordeste 22 Norte 0 918.8 -1.4 24
2017-08-16 15:00:00 32.7 6 Oeste 15 Norte 0 919.2 -1.4 29
2017-08-16 14:00:00 31.8 7 Noroeste 17 Norte 0 919.5 -1.5 29
2017-08-16 13:00:00 29.3 8 Norte 19 Noroeste 0 920.2 -0.6 39
2017-08-16 12:00:00 27.1 6 Norte 14 Norte 0 920.6 -0.1 46
2017-08-16 11:00:00 24.2 5 Noroeste 10 Norte 0 921 0.5 57
2017-08-16 10:00:00 20.6 3 Noroeste 8 Norte 0 920.8 0.6 69
2017-08-16 09:00:00 18.2 2 Oeste 4 Noroeste 0 920.7 0.7 79
2017-08-16 08:00:00 16.1 3 Nordeste 8 Norte 0 920.5 0.8 84
2017-08-16 07:00:00 16.2 4 Norte 11 Norte 0 920.2 0.5 85
2017-08-16 06:00:00 16.4 5 Norte 11 Norte 0 920 0.5 84
2017-08-16 05:00:00 17 6 Norte 14 Norte 0 919.7 0.1 81
2017-08-16 04:00:00 18 5 Norte 11 Norte 0 919.7 0.1 78
2017-08-16 03:00:00 18.8 4 Norte 9 Norte 0 919.5 -0.1 76
2017-08-16 02:00:00 19 4 Norte 8 Norte 0 919.6 0.1 76
2017-08-16 01:00:00 20.7 2 Sudeste 5 Sudeste 0 919.6 0.5 67
2017-08-16 00:00:00 21.5 3 Sur 8 Este 0 919.6 1.4 66
2017-08-15 23:00:00 22.8 6 Sudeste 15 Este 0 919.5 2.1 61
2017-08-15 22:00:00 23.5 8 Este 24 Este 0 919.1 2 58
2017-08-15 21:00:00 25.3 18 Este 33 Sudeste 0 918.2 1.3 48
2017-08-15 20:00:00 27.2 23 Este 34 Este 0 917.4 0.5 44
2017-08-15 19:00:00 28.5 24 Este 47 Este 0 917.1 0.5 37
2017-08-15 18:00:00 28.9 34 Este 46 Este 0 916.9 0.1 36
2017-08-15 17:00:00 30.2 30 Este 52 Este 0 916.9 -0.3 32
2017-08-15 16:00:00 31.7 16 Nordeste 31 Nordeste 0 916.6 -1.5 29
2017-08-15 15:00:00 34.3 18 Oeste 41 Oeste 0 916.8 -1.8 26
2017-08-15 14:00:00 34.7 5 Sudoeste 19 Sudoeste 0 917.2 -1.6 24
2017-08-15 13:00:00 32.7 4 Sudeste 14 Oeste 0 918.1 -0.7 25
2017-08-15 12:00:00 29.9 6 Sudoeste 17 Sudoeste 0 918.6 -0.5 29
2017-08-15 11:00:00 27.1 10 Sudoeste 17 Oeste 0 918.8 -0.4 34
2017-08-15 10:00:00 24.1 2 Oeste 8 Norte 0 918.8 0 39
2017-08-15 09:00:00 19.8 3 Sudoeste 13 Sudeste 0 919.1 0.7 54
2017-08-15 08:00:00 17.1 3 Sur 6 Sur 0 919.2 0.8 62
2017-08-15 07:00:00 16.2 4 Sudoeste 11 Sur 0 918.8 0.4 63
2017-08-15 06:00:00 17.1 3 Sudeste 13 Sudeste 0 918.4 -0.1 64
2017-08-15 05:00:00 17.7 3 Sudeste 14 Sur 0 918.4 -0.1 60
2017-08-15 04:00:00 17.3 3 Sudoeste 9 Norte 0 918.4 -0.1 58
2017-08-15 03:00:00 18.1 4 Norte 10 Norte 0 918.5 0.1 51
2017-08-15 02:00:00 20.5 5 Sur 14 Sur 0 918.5 0.6 41
2017-08-15 01:00:00 22.1 8 Sur 14 Sur 0 918.5 1.1 37
2017-08-15 00:00:00 23.3 5 Sudeste 25 Sur 0 918.4 2.5 36
2017-08-14 23:00:00 24.8 8 Sur 20 Sudeste 0 917.9 2.5 37
2017-08-14 22:00:00 25.8 14 Sudeste 31 Sur 0 917.4 2.2 36
2017-08-14 21:00:00 28 21 Sur 38 Sur 0 915.9 0.6 32
2017-08-14 20:00:00 31 20 Sur 39 Sur 0 915.4 -0.2 28
2017-08-14 19:00:00 33 19 Sur 35 Sur 0 915.2 -0.9 23
2017-08-14 18:00:00 34.7 9 Sudoeste 23 Oeste 0 915.3 -1.5 16
2017-08-14 17:00:00 34.6 7 Sudeste 23 Sudeste 0 915.6 -1.6 15
2017-08-14 16:00:00 34 11 Oeste 20 Sudoeste 0 916.1 -1.7 19
2017-08-14 15:00:00 33.9 11 Sudoeste 23 Oeste 0 916.8 -1.4 17
2017-08-14 14:00:00 32.8 10 Sudeste 30 Sudoeste 0 917.2 -1.2 17
2017-08-14 13:00:00 31 10 Sudoeste 28 Sudoeste 0 917.8 -0.8 21
2017-08-14 12:00:00 29.4 13 Sudoeste 25 Sudoeste 0 918.2 -0.3 24
2017-08-14 11:00:00 26.8 10 Sur 22 Sur 0 918.4 0 27
2017-08-14 10:00:00 22.5 3 Sudeste 9 Sudoeste 0 918.6 0.6 49
2017-08-14 09:00:00 19.6 4 Sudoeste 8 Sudeste 0 918.5 0.7 61
2017-08-14 08:00:00 16.3 5 Sur 9 Sur 0 918.4 0.6 71
2017-08-14 07:00:00 14.6 5 Sur 6 Sur 0 918 0.2 68
2017-08-14 06:00:00 15 0 Calma 9 Sudeste 0 917.8 -0.1 69
2017-08-14 05:00:00 16.5 3 Sudeste 9 Sur 0 917.8 -0.3 62
2017-08-14 04:00:00 17.7 3 Sudeste 9 Sur 0 917.8 -0.4 59
2017-08-14 03:00:00 19.6 6 Sur 16 Sur 0 917.9 -0.1 55
2017-08-14 02:00:00 19.7 5 Sudeste 13 Sudoeste 0 918.1 0.3 58
2017-08-14 01:00:00 21.1 6 Sur 17 Sur 0 918.2 0.9 57
2017-08-14 00:00:00 22.5 6 Sudoeste 21 Sur 0 918 1.1 54
2017-08-13 23:00:00 24 8 Sur 23 Sudeste 0 917.8 1.3 50
2017-08-13 22:00:00 23.7 15 Sudeste 38 Este 0 917.3 1.3 52
2017-08-13 21:00:00 25.5 32 Este 42 Este 0 916.9 0.6 43
2017-08-13 20:00:00 28.3 24 Este 38 Este 0 916.5 -0.2 28
2017-08-13 19:00:00 29 21 Este 34 Nordeste 0 916 -0.9 27
2017-08-13 18:00:00 31.1 21 Este 34 Sudeste 0 916.3 -1.4 23
2017-08-13 17:00:00 32.1 18 Este 29 Este 0 916.7 -1.7 23
2017-08-13 16:00:00 32.5 6 Sudoeste 16 Sur 0 916.9 -2.3 18
2017-08-13 15:00:00 31.8 7 Oeste 14 Sudoeste 0 917.7 -2.1 20
2017-08-13 14:00:00 30 5 Norte 11 Norte 0 918.4 -1.9 23
2017-08-13 13:00:00 28.6 4 Norte 11 Oeste 0 919.2 -1.2 31
2017-08-13 12:00:00 25.9 4 Sudeste 9 Sudoeste 0 919.8 -0.5 40
2017-08-13 11:00:00 22.4 4 Oeste 8 Sur 0 920.3 0.3 49
2017-08-13 10:00:00 19.3 5 Sur 12 Sur 0 920.4 0.4 55
2017-08-13 09:00:00 14.8 3 Este 4 Nordeste 0 920.3 0.4 51
2017-08-13 08:00:00 10.8 0 Calma 6 Sudeste 0 920 -0.3 63
2017-08-13 07:00:00 10 6 Sudeste 9 Sur 0 920 -0.4 61
2017-08-13 06:00:00 9.9 2 Oeste 6 Sudeste 0 919.9 -0.9 69
2017-08-13 05:00:00 10.5 3 Sudoeste 7 Sudoeste 0 920.3 -0.8 66
2017-08-13 04:00:00 11.6 0 Calma 4 Nordeste 0 920.4 -0.8 57
2017-08-13 03:00:00 12.7 3 Oeste 5 Sudoeste 0 920.8 -0.5 55
2017-08-13 02:00:00 14 3 Nordeste 5 Norte 0 921.1 -0.1 47
2017-08-13 01:00:00 15 2 Noroeste 10 Este 0 921.2 0.6 48
2017-08-13 00:00:00 16.8 2 Oeste 4 Noroeste 0 921.3 1.3 42
2017-08-12 23:00:00 18.6 3 Noroeste 6 Nordeste 0 921.2 1.5 39
2017-08-12 22:00:00 21.9 5 Este 17 Nordeste 0 920.6 1 28
2017-08-12 21:00:00 24.7 7 Nordeste 20 Nordeste 0 920 0.2 23
2017-08-12 20:00:00 26.9 12 Nordeste 27 Nordeste 0 919.7 -0.1 21
2017-08-12 19:00:00 28.1 12 Nordeste 26 Nordeste 0 919.6 -0.8 21
2017-08-12 18:00:00 29.3 9 Nordeste 27 Noroeste 0 919.8 -1.2 21
2017-08-12 17:00:00 30.6 8 Noroeste 21 Nordeste 0 919.8 -1.7 22
2017-08-12 16:00:00 29.4 8 Norte 19 Noroeste 0 920.4 -1.7 20
2017-08-12 15:00:00 28.4 7 Noroeste 21 Noroeste 0 921 -1.5 22
2017-08-12 14:00:00 27 6 Nordeste 14 Noroeste 0 921.5 -1.2 18
2017-08-12 13:00:00 25.4 4 Oeste 12 Noroeste 0 922.1 -0.8 21
2017-08-12 12:00:00 22.7 3 Sudoeste 9 Noroeste 0 922.5 -0.5 25
2017-08-12 11:00:00 20.1 5 Sudoeste 13 Sudoeste 0 922.7 -0.1 34
2017-08-12 10:00:00 17.3 5 Sudeste 9 Sudeste 0 922.9 0.3 42
2017-08-12 09:00:00 11.5 3 Oeste 5 Este 0 923 0.7 61
2017-08-12 08:00:00 7 3 Noroeste 5 Norte 0 922.8 0.5 79
2017-08-12 07:00:00 7.1 3 Este 8 Sudeste 0 922.6 0.2 77
2017-08-12 06:00:00 7.3 2 Sur 8 Sudeste 0 922.3 -0.1 73
2017-08-12 05:00:00 7.8 0 Calma 8 Sudeste 0 922.3 -0.3 71
2017-08-12 04:00:00 8.4 3 Oeste 5 Oeste 0 922.4 -0.1 75
2017-08-12 03:00:00 9.6 6 Sudeste 7 Sudeste 0 922.4 -0.2 60
2017-08-12 02:00:00 11 3 Sudeste 9 Sur 0 922.6 0.1 64
2017-08-12 01:00:00 12.4 3 Sudoeste 6 Noroeste 0 922.5 0.4 61
2017-08-12 00:00:00 14.1 2 Noroeste 7 Norte 0 922.6 1.3 58
2017-08-11 23:00:00 15.5 4 Noroeste 12 Noroeste 0 922.5 1.5 52
2017-08-11 22:00:00 17.1 3 Noroeste 29 Norte 0 922.1 1.6 48
2017-08-11 21:00:00 19 17 Nordeste 32 Norte 0 921.3 0.6 39
2017-08-11 20:00:00 21.4 17 Nordeste 32 Nordeste 0 921 0.2 32
2017-08-11 19:00:00 24.4 9 Norte 23 Norte 0 920.5 -0.5 26
2017-08-11 18:00:00 26.2 7 Norte 21 Norte 0 920.7 -0.7 23
2017-08-11 17:00:00 26.2 5 Norte 21 Nordeste 0 920.8 -0.9 22
2017-08-11 16:00:00 25.1 9 Norte 20 Noroeste 0 921 -1.1 22
2017-08-11 15:00:00 24.4 8 Norte 17 Noroeste 0 921.4 -1.2 19
2017-08-11 14:00:00 22.7 8 Noroeste 20 Noroeste 0 921.7 -1.5 19
2017-08-11 13:00:00 20.5 7 Noroeste 21 Noroeste 0 922.1 -1 31
2017-08-11 12:00:00 18.4 7 Noroeste 18 Noroeste 0 922.6 -0.6 39
2017-08-11 11:00:00 16.2 7 Noroeste 15 Noroeste 0 923.2 0.4 49
2017-08-11 10:00:00 12.1 2 Noroeste 8 Oeste 0 923.1 0.1 61
2017-08-11 09:00:00 9.1 4 Norte 8 Nordeste 0 923.2 -0.1 74
2017-08-11 08:00:00 7.4 2 Oeste 6 Sudoeste 0 922.8 -0.8 83
2017-08-11 07:00:00 6.9 3 Sur 6 Sur 0 923 -0.7 79
2017-08-11 06:00:00 8 2 Este 5 Sur 0 923.3 -0.6 75
2017-08-11 05:00:00 9.2 4 Noroeste 11 Norte 0 923.6 -0.8 76
2017-08-11 04:00:00 10.5 4 Nordeste 9 Nordeste 0 923.7 -0.8 71
2017-08-11 03:00:00 9.7 0 Calma 6 Sudeste 0 923.9 -0.5 82
2017-08-11 02:00:00 10.5 3 Este 8 Noroeste 0 924.4 0.2 75
2017-08-11 01:00:00 11.4 4 Noroeste 12 Noroeste 0 924.5 1.3 77
2017-08-11 00:00:00 12.2 5 Norte 27 Norte 0 924.4 1.7 75
2017-08-10 23:00:00 13.3 13 Norte 35 Norte 0 924.2 1.9 70
2017-08-10 22:00:00 14.5 16 Norte 39 Norte 0 923.2 1 62
2017-08-10 21:00:00 16.2 17 Nordeste 39 Norte 0 922.7 0.4 55
2017-08-10 20:00:00 18.8 18 Norte 36 Nordeste 0 922.3 0 46
2017-08-10 19:00:00 20.3 14 Norte 33 Nordeste 0 922.2 -0.4 42
2017-08-10 18:00:00 20.9 17 Nordeste 39 Nordeste 0 922.3 -0.6 41
2017-08-10 17:00:00 21.2 14 Norte 32 Nordeste 0 922.3 -0.7 39
2017-08-10 16:00:00 21.1 16 Norte 31 Norte 0 922.6 -0.6 38
2017-08-10 15:00:00 20.9 13 Norte 31 Nordeste 0 922.9 -0.5 40
2017-08-10 14:00:00 20.7 12 Norte 28 Norte 0 923 -0.5 40
2017-08-10 13:00:00 19.5 10 Norte 25 Noroeste 0 923.2 -0.5 42
2017-08-10 12:00:00 17.9 9 Noroeste 26 Nordeste 0 923.4 -0.2 48
2017-08-10 11:00:00 15.9 9 Norte 24 Norte 0 923.5 0.7 53
2017-08-10 10:00:00 12.9 5 Noroeste 12 Noroeste 0 923.7 1.1 67
2017-08-10 09:00:00 10.6 4 Sur 8 Sudeste 0 923.6 1.4 72
2017-08-10 08:00:00 8 5 Sudeste 7 Sudeste 0 922.8 0.6 81
2017-08-10 07:00:00 6.8 3 Sudeste 6 Sudeste 0 922.6 0.2 86
2017-08-10 06:00:00 7 2 Sudoeste 8 Sudoeste 0 922.2 -0.8 85
2017-08-10 05:00:00 7.4 2 Norte 10 Norte 0 922.2 -0.8 85
2017-08-10 04:00:00 8.8 6 Norte 19 Norte 0 922.4 -0.5 79
2017-08-10 03:00:00 9.8 8 Norte 33 Norte 0 923 0.8 75
2017-08-10 02:00:00 10.7 12 Norte 26 Norte 0 923 1.3 71
2017-08-10 01:00:00 11.5 13 Norte 35 Norte 0 922.9 1.9 67
2017-08-10 00:00:00 12.5 16 Norte 37 Norte 0 922.2 2 63
2017-08-09 23:00:00 13.4 13 Norte 33 Norte 0 921.7 2.3 54
2017-08-09 22:00:00 13.9 12 Norte 32 Nordeste 0 921 1.9 55
2017-08-09 21:00:00 14 21 Norte 39 Norte 0 920.2 1.6 57
2017-08-09 20:00:00 14 21 Nordeste 45 Nordeste 0 919.4 1.4 57
2017-08-09 19:00:00 14.8 22 Norte 43 Norte 0 919.1 1.2 60
2017-08-09 18:00:00 16.7 21 Norte 45 Nordeste 0 918.6 0.9 53
2017-08-09 17:00:00 19.2 19 Norte 42 Norte 0 918 1 48
2017-08-09 16:00:00 19 19 Norte 41 Nordeste 0 917.9 0.5 48
2017-08-09 15:00:00 18.8 20 Norte 43 Norte 0 917.7 0.2 46
2017-08-09 14:00:00 19.7 17 Norte 38 Nordeste 0 917 -0.2 47
2017-08-09 13:00:00 19.7 14 Norte 36 Norte 0 917.4 0.2 48
2017-08-09 12:00:00 18.1 14 Norte 30 Norte 0 917.5 0.3 54
2017-08-09 11:00:00 16.4 10 Norte 23 Norte 0 917.2 -0.1 57
2017-08-09 10:00:00 15.8 6 Noroeste 14 Noroeste 0 917.2 0.1 62
2017-08-09 09:00:00 13 3 Norte 9 Norte 0 917.2 0.1 71
2017-08-09 08:00:00 11.6 4 Norte 9 Norte 0 917.3 -0.1 75
2017-08-09 07:00:00 10.4 5 Norte 9 Norte 0 917.1 -0.7 78
2017-08-09 06:00:00 11.4 4 Norte 9 Norte 0 917.1 -1 75
2017-08-09 05:00:00 11.2 5 Norte 10 Noroeste 0 917.4 -1.1 74
2017-08-09 04:00:00 11.3 4 Norte 11 Norte 0 917.8 -0.7 74
2017-08-09 03:00:00 11.7 3 Norte 8 Noroeste 0 918.1 -0.4 74
2017-08-09 02:00:00 12.1 3 Noroeste 8 Noroeste 0 918.5 -0.1 73
2017-08-09 01:00:00 13.3 0 Calma 8 Norte 0 918.5 1.1 69
2017-08-09 00:00:00 14.5 3 Norte 15 Norte 0 918.5 1.6 61
2017-08-08 23:00:00 15.6 5 Norte 26 Nordeste 0 918.6 2 56
2017-08-08 22:00:00 17.1 12 Norte 27 Norte 0 917.4 0.8 51
2017-08-08 21:00:00 19.1 11 Norte 32 Norte 0 916.9 0.4 40
2017-08-08 20:00:00 21.7 16 Norte 36 Norte 0 916.6 0.5 37
2017-08-08 19:00:00 23.5 13 Norte 35 Norte 0 916.6 0.6 31
2017-08-08 18:00:00 24.7 14 Norte 31 Nordeste 0 916.5 0.4 31
2017-08-08 17:00:00 25.7 14 Norte 30 Nordeste 0 916.1 -0.5 29
2017-08-08 16:00:00 26.1 10 Norte 24 Noroeste 0 916 -0.8 30
2017-08-08 15:00:00 24.8 8 Norte 23 Noroeste 0 916.1 -0.8 34
2017-08-08 14:00:00 23.9 8 Noroeste 21 Noroeste 0 916.6 0.1 39
2017-08-08 13:00:00 22 10 Noroeste 22 Noroeste 0 916.8 0.6 44
2017-08-08 12:00:00 19.7 8 Norte 22 Norte 0 916.9 1.2 55
2017-08-08 11:00:00 19 9 Norte 25 Nordeste 0 916.5 1.1 59
2017-08-08 10:00:00 16.9 10 Nordeste 31 Nordeste 0 916.2 1.3 66
2017-08-08 09:00:00 15.9 13 Norte 31 Norte 0 915.7 1.3 72
2017-08-08 08:00:00 15.4 10 Norte 25 Norte 0 915.4 1.4 75
2017-08-08 07:00:00 15.3 15 Nordeste 30 Nordeste 0 914.9 1.3 79
2017-08-08 06:00:00 15.1 6 Norte 16 Noroeste 0 914.4 1.6 87
2017-08-08 05:00:00 16 5 Noroeste 13 Noroeste 0 914 1.2 82
2017-08-08 04:00:00 18 6 Noroeste 18 Noroeste 0 913.6 1.1 73
2017-08-08 03:00:00 22.7 8 Sudoeste 19 Sudoeste 0 912.8 0.4 44
2017-08-08 02:00:00 22.6 8 Sudeste 12 Sudeste 0 912.8 0.4 30
2017-08-08 01:00:00 23.3 4 Sudeste 15 Sur 0 912.5 0.4 25
2017-08-08 00:00:00 23.9 8 Sur 15 Sur 0 912.4 0.5 24
2017-08-07 23:00:00 27.3 9 Sur 27 Oeste 0 912.4 0.7 19
2017-08-07 22:00:00 30.6 16 Oeste 35 Sudoeste 0 912.1 -0.1 14
2017-08-07 21:00:00 31.7 19 Oeste 51 Sudoeste 0 911.9 -1 13
2017-08-07 20:00:00 33.2 17 Oeste 45 Oeste 0 911.7 -1.1 13
2017-08-07 19:00:00 33.8 21 Oeste 52 Oeste 0 912.2 -0.9 14
2017-08-07 18:00:00 33.3 23 Oeste 54 Oeste 0 912.9 -0.9 12
2017-08-07 17:00:00 34.8 24 Oeste 50 Oeste 0 912.8 -1.6 13
2017-08-07 16:00:00 34.5 20 Oeste 53 Sudoeste 0 913.1 -2.2 15
2017-08-07 15:00:00 34 20 Oeste 47 Oeste 0 913.8 -2.1 16
2017-08-07 14:00:00 33.3 16 Oeste 37 Oeste 0 914.4 -1.4 17
2017-08-07 13:00:00 31.5 11 Sudoeste 21 Sudoeste 0 915.3 -0.8 32
2017-08-07 12:00:00 29 11 Sudoeste 24 Sudoeste 0 915.9 -0.5 42
2017-08-07 11:00:00 27.4 14 Sur 24 Sudoeste 0 915.8 -0.6 47
2017-08-07 10:00:00 25 13 Sudoeste 30 Sur 0 916.1 -0.1 54
2017-08-07 09:00:00 23.2 9 Sur 14 Sur 0 916.4 0.1 66
2017-08-07 08:00:00 19.7 5 Sudeste 8 Sur 0 916.4 -0.2 79
2017-08-07 07:00:00 18.7 5 Sudeste 11 Sur 0 916.2 -0.8 82
2017-08-07 06:00:00 19.1 6 Sur 10 Sudeste 0 916.3 -0.9 82
2017-08-07 05:00:00 20.1 3 Sur 10 Sudeste 0 916.6 -0.9 78
2017-08-07 04:00:00 21 6 Sur 23 Sudeste 0 917 -0.7 76
2017-08-07 03:00:00 22 14 Sudeste 27 Sur 0 917.2 -0.6 74
2017-08-07 02:00:00 22.6 15 Sudeste 27 Sur 0 917.5 0 72
2017-08-07 01:00:00 23.5 15 Sudeste 27 Este 0 917.7 0.3 65
2017-08-07 00:00:00 23 11 Este 27 Este 0 917.8 1.4 53
2017-08-06 23:00:00 23.7 21 Este 29 Este 0 917.5 1.1 50
2017-08-06 22:00:00 24.6 15 Este 32 Este 0 917.4 0.7 49
2017-08-06 21:00:00 25.8 22 Este 36 Este 0 916.4 -0.4 47
2017-08-06 20:00:00 27.6 25 Este 41 Nordeste 0 916.4 -0.4 43
2017-08-06 19:00:00 28.5 23 Nordeste 41 Nordeste 0 916.7 -0.6 38
2017-08-06 18:00:00 29 18 Este 37 Este 0 916.8 -1 40
2017-08-06 17:00:00 29.9 19 Este 33 Este 0 916.8 -2 37
2017-08-06 16:00:00 30.6 15 Este 30 Nordeste 0 917.3 -2.1 37
2017-08-06 15:00:00 29.4 10 Nordeste 29 Este 0 917.8 -2.1 38
2017-08-06 14:00:00 27.3 10 Este 20 Este 0 918.8 -1.2 41
2017-08-06 13:00:00 25.8 10 Norte 25 Norte 0 919.4 -0.6 42
2017-08-06 12:00:00 23.5 9 Norte 22 Nordeste 0 919.9 -0.1 48
2017-08-06 11:00:00 21.6 12 Norte 21 Norte 0 920 0.5 51
2017-08-06 10:00:00 20 6 Noroeste 20 Nordeste 0 920 1.3 60
2017-08-06 09:00:00 17.6 5 Norte 19 Norte 0 920 1.7 69
2017-08-06 08:00:00 15.4 5 Noroeste 13 Norte 0 919.5 1.4 78
2017-08-06 07:00:00 14.4 5 Norte 13 Nordeste 0 918.7 0.5 82
2017-08-06 06:00:00 14.9 8 Norte 22 Norte 0 918.3 0.2 80
2017-08-06 05:00:00 15.2 7 Norte 14 Norte 0 918.1 -0.1 79
2017-08-06 04:00:00 15.5 6 Norte 14 Norte 0 918.2 0.2 78
2017-08-06 03:00:00 16.2 6 Noroeste 18 Noroeste 0 918.1 0 77
2017-08-06 02:00:00 17 6 Norte 17 Noroeste 0 918.2 0.4 75
2017-08-06 01:00:00 18 5 Noroeste 17 Noroeste 0 918 0.9 72
2017-08-06 00:00:00 19.1 6 Noroeste 18 Noroeste 0 918.1 1.5 68
2017-08-05 23:00:00 20.1 5 Noroeste 19 Noroeste 0 917.8 1.9 66
2017-08-05 22:00:00 22.3 7 Norte 18 Norte 0 917.1 1.6 60
2017-08-05 21:00:00 26.9 6 Norte 31 Sudeste 0 916.6 1.1 48
2017-08-05 20:00:00 30.6 19 Este 30 Nordeste 0 915.9 -0.2 41
2017-08-05 19:00:00 31 16 Nordeste 35 Este 0 915.5 -1.1 39
2017-08-05 18:00:00 33.5 16 Este 31 Sudeste 0 915.5 -1 35
2017-08-05 17:00:00 32.5 14 Nordeste 29 Nordeste 0 916.1 -0.4 37
2017-08-05 16:00:00 32.1 13 Nordeste 37 Nordeste 0 916.6 -0.4 39
2017-08-05 15:00:00 32 14 Nordeste 35 Norte 0 916.5 -1 37
2017-08-05 14:00:00 35.4 11 Norte 30 Noroeste 0 916.5 -1.3 31
2017-08-05 13:00:00 34.2 5 Oeste 10 Noroeste 0 917 -0.5 27
2017-08-05 12:00:00 32.3 5 Oeste 14 Oeste 0 917.5 -0.4 30
2017-08-05 11:00:00 30 3 Sudoeste 12 Oeste 0 917.8 0 35
2017-08-05 10:00:00 26.7 4 Oeste 7 Oeste 0 917.5 0.1 48
2017-08-05 09:00:00 22.9 2 Oeste 4 Sudoeste 0 917.9 0.7 62
2017-08-05 08:00:00 18.6 4 Nordeste 8 Nordeste 0 917.8 0.3 71
2017-08-05 07:00:00 17.9 2 Sur 10 Sur 0 917.4 -0.3 73
2017-08-05 06:00:00 18.9 4 Sur 8 Sur 0 917.2 -0.6 71
2017-08-05 05:00:00 19.2 3 Nordeste 6 Noroeste 0 917.5 -0.6 66
2017-08-05 04:00:00 20.1 2 Norte 5 Noroeste 0 917.7 -0.6 64
2017-08-05 03:00:00 21.7 3 Oeste 6 Sur 0 917.8 -0.4 60
2017-08-05 02:00:00 23.2 3 Sur 5 Norte 0 918.1 -0.1 53
2017-08-05 01:00:00 24.9 2 Oeste 5 Oeste 0 918.3 0.9 49
2017-08-05 00:00:00 26.9 3 Este 14 Nordeste 0 918.2 1.5 41
2017-08-04 23:00:00 28.4 7 Nordeste 18 Este 0 918.2 1.8 37
2017-08-04 22:00:00 29.6 12 Este 21 Este 0 917.4 1.3 35
2017-08-04 21:00:00 31.8 16 Este 23 Este 0 916.7 0.6 30
2017-08-04 20:00:00 33.6 16 Este 30 Nordeste 0 916.4 -0.3 28
2017-08-04 19:00:00 35.4 12 Norte 27 Nordeste 0 916.1 -1.1 26
2017-08-04 18:00:00 36.6 7 Noroeste 21 Noroeste 0 916.1 -1.8 25
2017-08-04 17:00:00 36.7 7 Noroeste 17 Norte 0 916.7 -1.7 25
2017-08-04 16:00:00 35.7 6 Noroeste 13 Oeste 0 917.2 -1.7 27
2017-08-04 15:00:00 34.8 4 Noroeste 18 Sudeste 0 917.9 -1.4 26
2017-08-04 14:00:00 33.6 7 Nordeste 19 Nordeste 0 918.4 -1.1 28
2017-08-04 13:00:00 32.7 4 Noroeste 11 Oeste 0 918.9 -0.6 33
2017-08-04 12:00:00 30 4 Oeste 10 Oeste 0 919.3 -0.1 36
2017-08-04 11:00:00 28.3 3 Sudoeste 8 Sudoeste 0 919.5 0.2 36
2017-08-04 10:00:00 24.5 2 Sudoeste 5 Sudoeste 0 919.5 0.5 46
2017-08-04 09:00:00 21.1 2 Este 4 Noroeste 0 919.4 0.9 54
2017-08-04 08:00:00 16.8 0 Calma 4 Noroeste 0 919.3 1 73
2017-08-04 07:00:00 15.4 0 Calma 8 Sudeste 0 919 0.9 77
2017-08-04 06:00:00 16.5 3 Sudeste 6 Noroeste 0 918.5 0.6 69
2017-08-04 05:00:00 18.1 5 Sur 8 Sur 0 918.3 0.3 62
2017-08-04 04:00:00 19.1 0 Calma 8 Sudeste 0 918.1 0 66
2017-08-04 03:00:00 20.9 3 Oeste 13 Nordeste 0 917.9 -0.2 60
2017-08-04 02:00:00 22.4 6 Sudeste 11 Sudeste 0 918 0.3 55
2017-08-04 01:00:00 23.5 6 Sudeste 12 Sudeste 0 918.1 1 50
2017-08-04 00:00:00 25.2 8 Sudeste 20 Sur 0 918.1 1.3 40
2017-08-03 23:00:00 27 4 Este 23 Este 0 917.7 1.4 36
2017-08-03 22:00:00 29.2 21 Este 29 Este 0 917.1 0.7 31
2017-08-03 21:00:00 31.5 19 Este 29 Este 0 916.8 0 28
2017-08-03 20:00:00 35.5 4 Noroeste 9 Norte 0 916.3 -1 21
2017-08-03 19:00:00 36.2 5 Sudoeste 16 Sudeste 0 916.4 -1.4 18
2017-08-03 18:00:00 36.3 8 Sudeste 19 Sudoeste 0 916.8 -1.6 18
2017-08-03 17:00:00 36 8 Sudoeste 19 Sudoeste 0 917.3 -1.6 18
2017-08-03 16:00:00 35.6 11 Sudeste 22 Sudeste 0 917.8 -1.7 18
2017-08-03 15:00:00 34.2 7 Sudoeste 17 Este 0 918.4 -1.6 21
2017-08-03 14:00:00 33.5 4 Oeste 8 Oeste 0 918.9 -1.4 24
2017-08-03 13:00:00 31.4 2 Sudoeste 12 Oeste 0 919.5 -1 23
2017-08-03 12:00:00 29.1 4 Noroeste 10 Sudoeste 0 920 -0.4 43
2017-08-03 11:00:00 26.5 5 Sudoeste 12 Sudoeste 0 920.3 0.2 50
2017-08-03 10:00:00 23.3 5 Sudoeste 9 Sudoeste 0 920.5 0.6 62
2017-08-03 09:00:00 19.9 0 Calma 6 Sudoeste 0 920.4 0.8 74
2017-08-03 08:00:00 16.3 3 Sur 6 Sudeste 0 920.1 0.6 87
2017-08-03 07:00:00 15 3 Oeste 7 Sur 0 919.9 0.4 91
2017-08-03 06:00:00 15.9 2 Norte 6 Sudeste 0 919.6 0.1 89
2017-08-03 05:00:00 17.4 5 Sudeste 8 Sudeste 0 919.5 -0.5 79
2017-08-03 04:00:00 18.5 4 Sur 12 Sudeste 0 919.5 -0.7 80
2017-08-03 03:00:00 18.8 7 Sudeste 13 Sudeste 0 919.5 -0.7 78
2017-08-03 02:00:00 19.1 3 Sudeste 7 Sudeste 0 920 0.1 74
2017-08-03 01:00:00 20.3 5 Sudeste 9 Sudeste 0 920.2 1 68
2017-08-03 00:00:00 22.1 3 Sudeste 14 Sur 0 920.2 1.6 61
2017-08-02 23:00:00 23.3 6 Sur 14 Sudeste 0 919.9 1.7 57
2017-08-02 22:00:00 24.9 4 Sudoeste 22 Sur 0 919.2 1 57
2017-08-02 21:00:00 27.5 11 Sudoeste 24 Sudoeste 0 918.6 0.1 46
2017-08-02 20:00:00 29.2 15 Sudoeste 36 Sudoeste 0 918.2 -1.1 41
2017-08-02 19:00:00 29.8 16 Sudoeste 32 Sudoeste 0 918.2 -1.2 41
2017-08-02 18:00:00 29.8 13 Sudoeste 23 Sudoeste 0 918.5 -0.9 43
2017-08-02 17:00:00 25.8 14 Sudoeste 30 Sudoeste 0 919.3 -1.4 57
2017-08-02 16:00:00 24.2 15 Sudoeste 31 Sudoeste 0 919.4 -2.1 60
2017-08-02 15:00:00 22.8 17 Sudoeste 44 Sudeste 0.2 919.4 -2.7 49
2017-08-02 14:00:00 20.3 24 Sudeste 39 Sudeste 0.6 920.7 -1.2 63
2017-08-02 13:00:00 19.1 22 Sudeste 34 Sur 0.6 921.5 1.7 71
2017-08-02 12:00:00 18.5 10 Sur 51 Sudoeste 0.4 922.1 2.1 78
2017-08-02 11:00:00 22.9 17 Sur 41 Sur 0 921.9 2.8 47
2017-08-02 10:00:00 23.4 8 Sur 24 Sudoeste 0 919.8 0.1 55
2017-08-02 09:00:00 22.4 10 Sudoeste 22 Sudoeste 0 920 0.7 56
2017-08-02 08:00:00 22.1 12 Este 22 Este 0 919.1 0.2 52
2017-08-02 07:00:00 20.8 9 Sur 24 Sudeste 0 919.7 0.6 64
2017-08-02 06:00:00 20.6 16 Este 21 Este 0 919.3 0.2 63
2017-08-02 05:00:00 20.5 5 Sudeste 10 Sudoeste 0 918.9 -0.2 64
2017-08-02 04:00:00 21.7 5 Sur 10 Sur 0 919.1 -0.1 63
2017-08-02 03:00:00 21.9 3 Sudeste 7 Sur 0 919.1 0.3 59
2017-08-02 02:00:00 22.5 5 Sudeste 20 Sur 0 919.1 1.2 54
2017-08-02 01:00:00 23.8 12 Sur 23 Sudoeste 0 919.2 1.8 50
2017-08-02 00:00:00 25.3 15 Sur 43 Sur 0 918.8 2.9 47
2017-08-01 23:00:00 26 10 Sur 35 Sudoeste 0 917.9 2.9 41
2017-08-01 22:00:00 25.3 5 Sudoeste 15 Norte 0 917.4 3.1 48
2017-08-01 21:00:00 28.5 8 Norte 19 Nordeste 0 915.9 1.7 39
2017-08-01 20:00:00 30.2 9 Norte 28 Nordeste 0 915 0.9 33
2017-08-01 19:00:00 32.4 12 Norte 25 Nordeste 0 914.3 -0.2 31
2017-08-01 18:00:00 34.5 11 Oeste 33 Oeste 0 914.2 -0.6 12
2017-08-01 17:00:00 33.6 15 Oeste 33 Oeste 0 914.1 -0.6 16
2017-08-01 16:00:00 33.2 8 Sudoeste 22 Sudoeste 0 914.5 -0.7 25
2017-08-01 15:00:00 32.9 6 Oeste 13 Norte 0 914.8 -0.7 27
2017-08-01 14:00:00 31.4 5 Norte 14 Norte 0 914.7 -0.7 29
2017-08-01 13:00:00 28.8 6 Norte 15 Noroeste 0 915.2 0.1 36
2017-08-01 12:00:00 25.7 6 Norte 14 Noroeste 0 915.5 1 48
2017-08-01 11:00:00 24.1 5 Noroeste 12 Noroeste 0 915.4 1.2 58
2017-08-01 10:00:00 23.2 4 Oeste 8 Noroeste 0 915.1 1.7 63
2017-08-01 09:00:00 20.7 2 Noroeste 8 Nordeste 0 914.5 1.5 68
2017-08-01 08:00:00 17.5 4 Noroeste 10 Nordeste 0 914.2 1.4 80
2017-08-01 07:00:00 17 5 Nordeste 13 Norte 0 913.4 0.5 81
2017-08-01 06:00:00 17.4 4 Noroeste 11 Norte 0 913 -0.3 80
2017-08-01 05:00:00 18 4 Noroeste 9 Noroeste 0 912.8 0.2 78
2017-08-01 04:00:00 18.8 5 Nordeste 13 Norte 0 912.9 0.5 73
2017-08-01 03:00:00 20.4 4 Norte 11 Norte 0 913.3 1.3 69
2017-08-01 02:00:00 23.1 6 Norte 17 Norte 0 912.6 0.9 61
2017-08-01 01:00:00 24.4 7 Norte 17 Sudoeste 0 912.4 1.5 54
2017-08-01 00:00:00 26.8 9 Sudoeste 21 Sudoeste 0 912 2.2 48
2017-07-31 23:00:00 26.9 2 Sudoeste 14 Sudoeste 0 911.7 2 42
2017-07-31 22:00:00 29.2 3 Sudoeste 17 Oeste 0 910.9 1.4 18
2017-07-31 21:00:00 31.7 10 Oeste 39 Oeste 0 909.8 0.3 14
2017-07-31 20:00:00 34.2 18 Oeste 37 Oeste 0 909.7 -0.1 12
2017-07-31 19:00:00 35.2 21 Sudoeste 40 Sudoeste 0 909.5 -0.8 11
2017-07-31 18:00:00 36.4 18 Sudoeste 41 Sudoeste 0 909.5 -1.2 14
2017-07-31 17:00:00 36.7 21 Sudoeste 41 Sudoeste 0 909.8 -1.1 12
2017-07-31 16:00:00 36.2 21 Sudoeste 49 Sudoeste 0 910.3 -0.6 15
2017-07-31 15:00:00 35.8 24 Sudoeste 46 Sudoeste 0 910.7 -0.6 14
2017-07-31 14:00:00 35.2 22 Sudoeste 44 Sudoeste 0 910.9 -0.8 15
2017-07-31 13:00:00 34.9 20 Sur 37 Sudoeste 0 910.9 -1.3 20
2017-07-31 12:00:00 33 16 Sur 33 Sur 0 911.3 -1.2 23
2017-07-31 11:00:00 29.3 4 Oeste 7 Norte 0 911.7 -0.6 38
2017-07-31 10:00:00 25.5 3 Nordeste 8 Norte 0 912.2 0.1 49
2017-07-31 09:00:00 20.8 4 Norte 11 Norte 0 912.5 0.5 64
2017-07-31 08:00:00 17.2 3 Norte 7 Norte 0 912.3 -0.1 73
2017-07-31 07:00:00 16.2 3 Norte 11 Sur 0 912.1 -0.4 75
2017-07-31 06:00:00 17.2 3 Nordeste 8 Noroeste 0 912 -0.6 72
2017-07-31 05:00:00 17.9 4 Noroeste 10 Norte 0 912.4 -0.4 67
2017-07-31 04:00:00 19 3 Norte 5 Sur 0 912.5 -0.7 62
2017-07-31 03:00:00 20.5 4 Nordeste 8 Sudeste 0 912.6 -0.7 52
2017-07-31 02:00:00 22.3 5 Sudeste 9 Sudeste 0 912.8 -0.6 47
2017-07-31 01:00:00 23.9 5 Sudeste 8 Sur 0 913.2 1 43
2017-07-31 00:00:00 25.5 3 Sudoeste 8 Sudoeste 0 913.3 1.2 39
2017-07-30 23:00:00 26.3 5 Sur 19 Sudoeste 0 913.4 1.4 28
2017-07-30 22:00:00 29 2 Sudoeste 10 Oeste 0 912.2 0.1 24
2017-07-30 21:00:00 31.8 6 Oeste 22 Oeste 0 912.1 -0.2 20
2017-07-30 20:00:00 33.7 9 Oeste 31 Oeste 0 912 -0.8 18
2017-07-30 19:00:00 34.2 10 Oeste 32 Oeste 0 912.1 -1.2 19
2017-07-30 18:00:00 35.7 8 Oeste 35 Oeste 0 912.3 -1.3 18
2017-07-30 17:00:00 34.3 13 Oeste 39 Oeste 0 912.8 -1.1 17
2017-07-30 16:00:00 35.8 19 Sudoeste 42 Oeste 0 913.3 -1.1 16
2017-07-30 15:00:00 35.3 18 Oeste 47 Oeste 0 913.6 -1.5 17
2017-07-30 14:00:00 34.1 24 Oeste 42 Oeste 0 913.9 -2 15
2017-07-30 13:00:00 34.5 5 Sur 15 Oeste 0 914.4 -1.9 17
2017-07-30 12:00:00 32.3 8 Sur 17 Sudeste 0 915.1 -1.5 23
2017-07-30 11:00:00 29.3 6 Sudeste 13 Sur 0 915.9 -0.5 28
2017-07-30 10:00:00 24.3 5 Sur 12 Sur 0 916.3 0.2 42
2017-07-30 09:00:00 19.7 2 Este 5 Oeste 0 916.6 0.7 52
2017-07-30 08:00:00 15.7 2 Norte 5 Sur 0 916.4 0.2 60
2017-07-30 07:00:00 14.1 3 Noroeste 11 Sudeste 0 916.1 -0.3 68
2017-07-30 06:00:00 14.8 6 Este 15 Noroeste 0 915.9 -0.6 64
2017-07-30 05:00:00 15.5 3 Este 5 Este 0 916.2 -0.4 57
2017-07-30 04:00:00 16.7 2 Nordeste 5 Oeste 0 916.4 -0.4 58
2017-07-30 03:00:00 17.8 3 Sur 7 Sudeste 0 916.5 -0.3 54
2017-07-30 02:00:00 19.1 2 Nordeste 4 Sudeste 0 916.6 -0.1 45
2017-07-30 01:00:00 20.8 4 Sudeste 7 Sudeste 0 916.8 0.8 38
2017-07-30 00:00:00 23.7 2 Sur 6 Sudeste 0 916.8 1.4 34
2017-07-29 23:00:00 26.9 3 Este 13 Oeste 0 916.7 1.5 27
2017-07-29 22:00:00 29.5 7 Noroeste 28 Oeste 0 916 1 23
2017-07-29 21:00:00 31.8 17 Oeste 31 Oeste 0 915.4 0 16
2017-07-29 20:00:00 33.7 14 Oeste 33 Oeste 0 915.2 -0.5 15
2017-07-29 19:00:00 33.6 11 Oeste 30 Sudoeste 0 915 -1 17
2017-07-29 18:00:00 34.3 16 Sudoeste 33 Sudoeste 0 915.4 -1 16
2017-07-29 17:00:00 34.1 10 Oeste 30 Oeste 0 915.7 -1.1 18
2017-07-29 16:00:00 34.9 12 Oeste 35 Sudoeste 0 916 -1 14
2017-07-29 15:00:00 33.5 13 Oeste 35 Sudoeste 0 916.4 -1.3 17
2017-07-29 14:00:00 33.4 14 Oeste 35 Oeste 0 916.8 -1.3 14
2017-07-29 13:00:00 33.4 9 Sudoeste 18 Sudoeste 0 917 -1.3 23
2017-07-29 12:00:00 30.8 4 Este 11 Este 0 917.7 -0.3 31
2017-07-29 11:00:00 27.1 5 Sudoeste 12 Sur 0 918.1 0.4 46
2017-07-29 10:00:00 24.3 5 Sudeste 12 Sudeste 0 918.3 0.8 52
2017-07-29 09:00:00 21.1 2 Oeste 6 Sur 0 918 0.6 64
2017-07-29 08:00:00 16.9 0 Calma 3 Oeste 0 917.7 0.4 66
2017-07-29 07:00:00 14.9 2 Noroeste 5 Oeste 0 917.5 0.2 73
2017-07-29 06:00:00 16.2 3 Sur 5 Sur 0 917.4 -0.3 70
2017-07-29 05:00:00 17.4 2 Sudoeste 4 Nordeste 0 917.3 -0.5 64
2017-07-29 04:00:00 18.5 0 Calma 7 Noroeste 0 917.3 -0.6 61
2017-07-29 03:00:00 19.8 2 Noroeste 6 Norte 0 917.7 0 61
2017-07-29 02:00:00 20.5 4 Noroeste 6 Noroeste 0 917.8 0.3 61
2017-07-29 01:00:00 21.9 3 Norte 10 Nordeste 0 917.9 1 59
2017-07-29 00:00:00 24.3 2 Sudeste 13 Este 0 917.7 1.5 51
2017-07-28 23:00:00 26 9 Sudeste 11 Este 0 917.5 1.5 40
2017-07-28 22:00:00 27.9 7 Este 22 Este 0 916.9 1.1 35
2017-07-28 21:00:00 29.8 17 Este 31 Este 0 916.2 0.6 32
2017-07-28 20:00:00 31.6 22 Este 32 Este 0 916 0.2 31
2017-07-28 19:00:00 32.4 23 Este 35 Este 0 915.8 -0.5 31
2017-07-28 18:00:00 33.6 21 Este 34 Este 0 915.6 -1 27
2017-07-28 17:00:00 34.4 9 Este 30 Norte 0 915.8 -1.4 23
2017-07-28 16:00:00 34.6 4 Sudoeste 26 Este 0 916.3 -1.4 23
2017-07-28 15:00:00 34.4 7 Noroeste 17 Oeste 0 916.6 -1.3 25
2017-07-28 14:00:00 33 8 Noroeste 17 Norte 0 917.2 -0.8 27
2017-07-28 13:00:00 31.6 7 Noroeste 17 Noroeste 0 917.7 -0.6 29
2017-07-28 12:00:00 28.9 6 Noroeste 12 Noroeste 0 917.9 -0.1 37
2017-07-28 11:00:00 26.1 3 Oeste 6 Oeste 0 918 0.2 47
2017-07-28 10:00:00 22.7 3 Oeste 5 Oeste 0 918.3 0.9 53
2017-07-28 09:00:00 20 2 Oeste 6 Oeste 0 918 1 61
2017-07-28 08:00:00 16.8 0 Calma 4 Sudoeste 0 917.8 1.1 70
2017-07-28 07:00:00 15.4 3 Nordeste 6 Nordeste 0 917.4 0.6 71
2017-07-28 06:00:00 15.8 3 Noroeste 7 Norte 0 917 0.2 75
2017-07-28 05:00:00 17.2 3 Norte 9 Norte 0 916.7 0.1 63
2017-07-28 04:00:00 18.5 2 Noroeste 8 Norte 0 916.8 0.4 63
2017-07-28 03:00:00 19.6 4 Noroeste 8 Nordeste 0 916.8 0.5 59
2017-07-28 02:00:00 20.9 5 Norte 8 Noroeste 0 916.6 0.6 49
2017-07-28 01:00:00 22.6 4 Norte 9 Norte 0 916.4 1.1 42
2017-07-28 00:00:00 23.9 6 Norte 11 Norte 0 916.3 2 39
2017-07-27 23:00:00 25.6 6 Norte 16 Norte 0 916 2.2 36
2017-07-27 22:00:00 28.4 7 Norte 28 Este 0 915.3 1.5 30
2017-07-27 21:00:00 30.8 19 Este 34 Nordeste 0 914.3 0.3 26
2017-07-27 20:00:00 34.1 12 Norte 28 Nordeste 0 913.8 -0.6 21
2017-07-27 19:00:00 35.8 9 Noroeste 27 Oeste 0 913.8 -1 19
2017-07-27 18:00:00 36.3 6 Noroeste 30 Oeste 0 914 -1.1 18
2017-07-27 17:00:00 35.4 12 Oeste 33 Sudoeste 0 914.4 -1.3 20
2017-07-27 16:00:00 34.5 14 Oeste 30 Oeste 0 914.8 -1.4 20
2017-07-27 15:00:00 34.5 10 Noroeste 24 Oeste 0 915.1 -1.6 21
2017-07-27 14:00:00 33.3 6 Noroeste 26 Oeste 0 915.7 -1.4 22
2017-07-27 13:00:00 32 8 Noroeste 23 Oeste 0 916.2 -1.3 26
2017-07-27 12:00:00 30 5 Sudoeste 15 Sur 0 916.7 -0.9 30
2017-07-27 11:00:00 26 8 Sur 15 Sudoeste 0 917.1 -0.3 42
2017-07-27 10:00:00 22.4 5 Sur 9 Sudoeste 0 917.5 0.3 52
2017-07-27 09:00:00 20 5 Sudoeste 10 Sudoeste 0 917.6 0.4 57
2017-07-27 08:00:00 15.8 3 Sur 6 Sur 0 917.4 0.2 75
2017-07-27 07:00:00 13.3 4 Sur 8 Sur 0 917.2 -0.3 81
2017-07-27 06:00:00 13.5 4 Sur 6 Sur 0 917.2 -0.3 80
2017-07-27 05:00:00 14.2 0 Calma 5 Norte 0 917.2 -0.4 80
2017-07-27 04:00:00 14.9 2 Oeste 5 Norte 0 917.5 -0.4 77
2017-07-27 03:00:00 16.3 2 Sudeste 5 Sur 0 917.5 -0.4 70
2017-07-27 02:00:00 17.6 0 Calma 6 Sudeste 0 917.6 0 63
2017-07-27 01:00:00 18.9 4 Sudeste 8 Sudeste 0 917.9 1 59
2017-07-27 00:00:00 20.4 3 Noroeste 10 Nordeste 0 917.9 1.7 58
2017-07-26 23:00:00 21.8 6 Norte 24 Nordeste 0 917.6 2 52
2017-07-26 22:00:00 23.3 11 Nordeste 22 Norte 0 916.9 1.4 48
2017-07-26 21:00:00 25.3 13 Norte 27 Norte 0 916.2 0.6 40
2017-07-26 20:00:00 27.9 12 Nordeste 26 Nordeste 0 915.6 -0.2 34
2017-07-26 19:00:00 30.1 9 Norte 21 Norte 0 915.5 -0.8 31
2017-07-26 18:00:00 30 9 Norte 25 Norte 0 915.6 -0.9 28
2017-07-26 17:00:00 29.8 10 Norte 22 Noroeste 0 915.8 -1.1 30
2017-07-26 16:00:00 29.3 9 Norte 20 Noroeste 0 916.3 -0.8 29
2017-07-26 15:00:00 28.5 6 Norte 23 Norte 0 916.5 -0.9 31
2017-07-26 14:00:00 26.7 9 Norte 23 Noroeste 0 916.9 -0.9 34
2017-07-26 13:00:00 25.2 8 Norte 21 Norte 0 917.1 -0.9 36
2017-07-26 12:00:00 23 8 Norte 18 Norte 0 917.4 -0.6 40
2017-07-26 11:00:00 20.2 3 Oeste 10 Norte 0 917.8 0.1 49
2017-07-26 10:00:00 17.4 3 Sur 8 Nordeste 0 918 0.6 55
2017-07-26 09:00:00 14.3 3 Norte 5 Nordeste 0 918 0.7 69
2017-07-26 08:00:00 10.5 3 Este 5 Sudeste 0 917.7 0.2 83
2017-07-26 07:00:00 8.5 2 Noroeste 4 Sudeste 0 917.4 -0.2 91
2017-07-26 06:00:00 9 0 Calma 6 Sudoeste 0 917.3 -0.3 88
2017-07-26 05:00:00 9.8 2 Sudoeste 4 Sudeste 0 917.5 -0.6 87
2017-07-26 04:00:00 10.3 0 Calma 4 Sudoeste 0 917.6 -0.6 85
2017-07-26 03:00:00 11.4 2 Sudoeste 5 Oeste 0 917.6 -0.4 82
2017-07-26 02:00:00 12.5 3 Noroeste 9 Norte 0 918.1 0.1 79
2017-07-26 01:00:00 13.6 4 Nordeste 10 Nordeste 0 918.2 1.3 71
2017-07-26 00:00:00 14.8 4 Nordeste 14 Nordeste 0 918 1.4 65
2017-07-25 23:00:00 15.9 4 Norte 23 Norte 0 918 1.8 62
2017-07-25 22:00:00 17.1 11 Norte 27 Nordeste 0 916.9 0.9 57
2017-07-25 21:00:00 18.4 15 Norte 31 Nordeste 0 916.6 0.3 51
2017-07-25 20:00:00 19.9 18 Nordeste 32 Nordeste 0 916.2 -0.4 47
2017-07-25 19:00:00 22.6 17 Nordeste 34 Nordeste 0 916 -0.9 40
2017-07-25 18:00:00 24.5 14 Norte 35 Nordeste 0 916.3 -1.1 37
2017-07-25 17:00:00 24.2 15 Nordeste 32 Norte 0 916.6 -1.5 37
2017-07-25 16:00:00 25.6 7 Noroeste 28 Nordeste 0 916.9 -1.4 33
2017-07-25 15:00:00 24 11 Nordeste 24 Norte 0 917.4 -1.1 35
2017-07-25 14:00:00 23.3 9 Noroeste 24 Norte 0 918.1 -0.7 35
2017-07-25 13:00:00 22.3 8 Noroeste 23 Norte 0 918.3 -0.7 44
2017-07-25 12:00:00 20.5 9 Noroeste 27 Noroeste 0 918.5 -0.6 48
2017-07-25 11:00:00 18.9 10 Noroeste 26 Norte 0 918.8 -0.4 51
2017-07-25 10:00:00 17.3 7 Norte 21 Norte 0 919 -0.1 59
2017-07-25 09:00:00 15.6 7 Norte 19 Norte 0 919.1 -0.2 63
2017-07-25 08:00:00 13.1 4 Noroeste 6 Norte 0 919.2 -0.4 74
2017-07-25 07:00:00 11.3 3 Noroeste 13 Nordeste 0 919.1 -0.9 83
2017-07-25 06:00:00 12.4 4 Norte 18 Norte 0 919.3 -1.3 78
2017-07-25 05:00:00 13.7 4 Norte 17 Nordeste 0 919.6 -1.2 75
2017-07-25 04:00:00 13.9 4 Norte 21 Nordeste 0 920 -1.1 79
2017-07-25 03:00:00 13.3 3 Norte 13 Norte 0 920.6 -0.5 83
2017-07-25 02:00:00 14.3 8 Norte 21 Norte 0 920.8 0 79
2017-07-25 01:00:00 14.9 8 Norte 18 Norte 0 921.1 0.8 75
2017-07-25 00:00:00 15.7 10 Norte 21 Nordeste 0 921.1 1.7 74
2017-07-24 23:00:00 16.6 11 Norte 23 Norte 0 920.8 1.9 71
2017-07-24 22:00:00 17.9 13 Norte 38 Norte 0 920.3 1.6 64
2017-07-24 21:00:00 19.5 23 Norte 49 Nordeste 0 919.4 0.9 58
2017-07-24 20:00:00 22.5 18 Norte 44 Nordeste 0 918.9 0.1 48
2017-07-24 19:00:00 24.3 23 Norte 41 Norte 0 918.7 -0.4 42
2017-07-24 18:00:00 26.5 18 Norte 34 Norte 0 918.5 -0.9 36
2017-07-24 17:00:00 26.8 14 Norte 31 Nordeste 0 918.8 -0.7 35
2017-07-24 16:00:00 26.9 10 Norte 32 Nordeste 0 919.1 -0.9 37
2017-07-24 15:00:00 25.6 16 Norte 31 Norte 0 919.4 -0.9 40
2017-07-24 14:00:00 25.6 12 Norte 26 Noroeste 0 919.5 -0.6 41
2017-07-24 13:00:00 24.4 11 Norte 23 Noroeste 0 920 -0.5 46
2017-07-24 12:00:00 22.9 7 Noroeste 17 Norte 0 920.3 0.2 51
2017-07-24 11:00:00 21.5 8 Norte 19 Norte 0 920.1 -0.1 57
2017-07-24 10:00:00 18.9 6 Noroeste 13 Noroeste 0 920.5 0.4 69
2017-07-24 09:00:00 18.1 4 Noroeste 8 Noroeste 0 920.1 0.1 73
2017-07-24 08:00:00 15.7 3 Noroeste 5 Noroeste 0 920.2 0.3 81
2017-07-24 07:00:00 14.1 2 Norte 8 Norte 0 920.1 0.1 87
2017-07-24 06:00:00 14.6 3 Noroeste 13 Norte 0 920 -0.2 83
2017-07-24 05:00:00 15.5 7 Norte 19 Nordeste 0 919.9 -0.4 78
2017-07-24 04:00:00 15.4 6 Norte 14 Nordeste 0 920 -0.4 76
2017-07-24 03:00:00 16 4 Noroeste 19 Norte 0 920.2 0 72
2017-07-24 02:00:00 17 11 Norte 28 Norte 0 920.3 0.8 66
2017-07-24 01:00:00 18 5 Norte 21 Nordeste 0 920.4 1.9 62
2017-07-24 00:00:00 19.7 5 Norte 31 Nordeste 0 920.2 2.2 52
2017-07-23 23:00:00 21.7 14 Norte 30 Nordeste 0 919.5 2.2 50
2017-07-23 22:00:00 23.2 13 Nordeste 27 Norte 0 918.5 1.3 53
2017-07-23 21:00:00 25.2 11 Norte 26 Nordeste 0 918 0.6 48
2017-07-23 20:00:00 28.1 10 Nordeste 20 Norte 0 917.3 -0.9 38
2017-07-23 19:00:00 28.8 5 Oeste 13 Sudeste 0 917.2 -1.5 40
2017-07-23 18:00:00 28.1 7 Sudeste 28 Sudeste 0 917.4 -1.2 42
2017-07-23 17:00:00 26.5 21 Sudeste 36 Este 0 918.2 0.2 47
2017-07-23 16:00:00 22.8 26 Este 35 Este 0 918.7 -0.2 60
2017-07-23 15:00:00 21.5 21 Este 30 Este 0 918.6 -0.3 67
2017-07-23 14:00:00 24.7 8 Norte 21 Norte 0 918 -1.3 54
2017-07-23 13:00:00 28.2 8 Noroeste 18 Noroeste 0 918.9 -0.8 41
2017-07-23 12:00:00 25.9 7 Noroeste 14 Norte 0 918.9 -1 49
2017-07-23 11:00:00 22.7 8 Noroeste 15 Norte 0 919.3 -0.1 59
2017-07-23 10:00:00 19.8 7 Noroeste 18 Norte 0 919.7 0.1 68
2017-07-23 09:00:00 17.4 6 Norte 16 Noroeste 0 919.9 0.6 75
2017-07-23 08:00:00 15 6 Norte 13 Norte 0 919.4 0.6 84
2017-07-23 07:00:00 13.6 4 Norte 11 Noroeste 0 919.6 0.8 89
2017-07-23 06:00:00 14.2 4 Norte 10 Norte 0 919.3 0.8 87
2017-07-23 05:00:00 15 3 Norte 7 Norte 0 918.8 0.3 82
2017-07-23 04:00:00 15.9 3 Norte 12 Noroeste 0 918.8 0.9 78
2017-07-23 03:00:00 16.9 6 Noroeste 15 Norte 0 918.5 1.1 74
2017-07-23 02:00:00 18.4 6 Noroeste 15 Noroeste 0 918.5 1.5 69
2017-07-23 01:00:00 20.3 5 Norte 13 Norte 0 917.9 1.9 65
2017-07-23 00:00:00 22.2 2 Noroeste 14 Este 0 917.4 2.3 67
2017-07-22 23:00:00 23.9 6 Este 22 Este 0 917 2.6 60
2017-07-22 22:00:00 25.7 13 Este 26 Este 0 916 1.9 49
2017-07-22 21:00:00 29 6 Oeste 22 Noroeste 0 915.1 1.2 19
2017-07-22 20:00:00 31.5 12 Noroeste 31 Sudoeste 0 914.4 0.5 15
2017-07-22 19:00:00 32.3 12 Noroeste 32 Oeste 0 914.1 0.7 17
2017-07-22 18:00:00 32.9 11 Oeste 31 Oeste 0 913.9 -0.1 19
2017-07-22 17:00:00 33.3 12 Oeste 36 Oeste 0 913.9 -0.5 19
2017-07-22 16:00:00 33.4 10 Oeste 32 Oeste 0 913.4 -1.5 20
2017-07-22 15:00:00 32.5 12 Sudoeste 28 Oeste 0 914 -1.2 19
2017-07-22 14:00:00 31.2 5 Oeste 19 Oeste 0 914.4 -1.1 29
2017-07-22 13:00:00 29.7 6 Oeste 17 Oeste 0 914.9 -0.8 31
2017-07-22 12:00:00 28.3 5 Sur 11 Sur 0 915.2 -0.4 30
2017-07-22 11:00:00 25.3 4 Sudoeste 10 Sur 0 915.5 0.2 44
2017-07-22 10:00:00 21.3 4 Sudoeste 8 Sudoeste 0 915.7 1 69
2017-07-22 09:00:00 18.2 0 Calma 8 Norte 0 915.6 1.1 83
2017-07-22 08:00:00 14.9 3 Norte 7 Norte 0 915.3 1 93
2017-07-22 07:00:00 13.9 3 Norte 5 Norte 0 914.7 0.6 93
2017-07-22 06:00:00 14.2 2 Norte 5 Noroeste 0 914.5 0.5 93
2017-07-22 05:00:00 14.7 2 Oeste 7 Noroeste 0 914.3 0.3 91
2017-07-22 04:00:00 15.9 2 Norte 5 Norte 0 914.1 0.2 85
2017-07-22 03:00:00 17 2 Norte 6 Nordeste 0 914 0.4 81
2017-07-22 02:00:00 18 3 Noroeste 10 Nordeste 0 914 1.1 78
2017-07-22 01:00:00 19 6 Sudeste 10 Sudeste 0 913.9 1.7 71
2017-07-22 00:00:00 20.4 6 Sudeste 10 Sudeste 0 913.6 2 69
2017-07-21 23:00:00 21.9 3 Oeste 24 Este 0 912.9 1.5 70
2017-07-21 22:00:00 23.2 20 Este 30 Este 0 912.2 1.2 65
2017-07-21 21:00:00 24.8 23 Este 35 Este 0 911.6 0.7 59
2017-07-21 20:00:00 26.4 22 Este 33 Este 0 911.4 0.3 46
2017-07-21 19:00:00 27.5 21 Este 30 Este 0 911 -0.2 46
2017-07-21 18:00:00 29.2 4 Este 25 Sudeste 0 910.9 -0.6 34
2017-07-21 17:00:00 29.7 17 Sudeste 26 Este 0 911.1 -0.6 35
2017-07-21 16:00:00 27.5 8 Nordeste 27 Nordeste 0 911.2 -0.7 38
2017-07-21 15:00:00 28.2 8 Norte 26 Nordeste 0 911.5 -0.5 42
2017-07-21 14:00:00 26.7 14 Nordeste 30 Norte 0 911.7 -0.5 47
2017-07-21 13:00:00 27 10 Norte 24 Sur 0 911.9 -0.6 47
2017-07-21 12:00:00 27.1 8 Sudoeste 21 Sudoeste 0 912 -0.4 45
2017-07-21 11:00:00 25.7 10 Sur 27 Sur 0 912.2 -0.2 51
2017-07-21 10:00:00 23.7 14 Sur 33 Sudoeste 0 912.5 0 58
2017-07-21 09:00:00 22.1 13 Sur 25 Sur 0 912.4 -0.3 66
2017-07-21 08:00:00 15.8 3 Sudeste 6 Norte 0 912.4 -0.3 78
2017-07-21 07:00:00 15.3 2 Noroeste 12 Norte 0 912.5 -0.6 79
2017-07-21 06:00:00 15.6 6 Noroeste 19 Norte 0 912.7 -0.5 77
2017-07-21 05:00:00 16.3 7 Noroeste 16 Noroeste 0 912.7 -0.8 75
2017-07-21 04:00:00 16.6 6 Noroeste 15 Norte 0 913.1 -0.7 72
2017-07-21 03:00:00 17 6 Noroeste 14 Noroeste 0 913.2 -0.4 73
2017-07-21 02:00:00 17.5 4 Norte 13 Norte 0 913.5 -0.2 70
2017-07-21 01:00:00 18.1 5 Noroeste 15 Norte 0 913.8 0.8 67
2017-07-21 00:00:00 18.9 5 Noroeste 13 Norte 0 913.6 0.9 65
2017-07-20 23:00:00 20.4 5 Noroeste 16 Norte 0 913.7 1.4 59
2017-07-20 22:00:00 23.5 8 Norte 25 Este 0 913 0.8 49
2017-07-20 21:00:00 25.1 13 Este 27 Este 0 912.7 0.4 46
2017-07-20 20:00:00 27.2 15 Este 29 Nordeste 0 912.3 -0.4 39
2017-07-20 19:00:00 28.1 12 Nordeste 28 Este 0 912.2 -0.9 36
2017-07-20 18:00:00 28.8 13 Este 29 Nordeste 0 912.3 -1.2 35
2017-07-20 17:00:00 28.9 14 Norte 34 Nordeste 0 912.7 -1.4 36
2017-07-20 16:00:00 29.6 10 Norte 27 Norte 0 913.1 -1.8 35
2017-07-20 15:00:00 29.6 9 Nordeste 19 Nordeste 0 913.5 -1.7 31
2017-07-20 14:00:00 28.1 9 Norte 26 Oeste 0 914.1 -1.4 37
2017-07-20 13:00:00 26.7 7 Noroeste 18 Norte 0 914.9 -0.9 45
2017-07-20 12:00:00 24.7 6 Noroeste 13 Noroeste 0 915.2 -0.5 49
2017-07-20 11:00:00 22.8 6 Noroeste 18 Oeste 0 915.5 0.1 55
2017-07-20 10:00:00 21.2 6 Norte 20 Norte 0 915.8 0.6 60
2017-07-20 09:00:00 19.5 4 Norte 13 Norte 0 915.7 0.8 64
2017-07-20 08:00:00 16.8 3 Norte 11 Norte 0 915.4 0.7 74
2017-07-20 07:00:00 15.3 4 Norte 10 Norte 0 915.2 0.6 79
2017-07-20 06:00:00 15.9 5 Norte 14 Noroeste 0 914.9 0.1 77
2017-07-20 05:00:00 16.8 6 Noroeste 16 Noroeste 0 914.7 0 75
2017-07-20 04:00:00 17.7 4 Noroeste 14 Norte 0 914.6 0.1 72
2017-07-20 03:00:00 18.8 6 Norte 14 Norte 0 914.8 0.8 71
2017-07-20 02:00:00 19.8 6 Noroeste 18 Norte 0 914.7 0.8 69
2017-07-20 01:00:00 21.2 12 Norte 21 Nordeste 0 914.5 1.6 63
2017-07-20 00:00:00 22.9 2 Este 9 Norte 0 914 1.7 32
2017-07-19 23:00:00 25.2 4 Norte 18 Noroeste 0 913.9 1.9 28
2017-07-19 22:00:00 27 9 Noroeste 28 Noroeste 0 912.9 0.9 26
2017-07-19 21:00:00 28.9 9 Oeste 29 Oeste 0 912.3 0.1 24
2017-07-19 20:00:00 31.3 12 Oeste 33 Oeste 0 912 -0.4 22
2017-07-19 19:00:00 32.1 18 Oeste 32 Oeste 0 912 -0.9 23
2017-07-19 18:00:00 31.4 13 Sudoeste 32 Oeste 0 912.2 -1.1 24
2017-07-19 17:00:00 33 13 Sudoeste 31 Sudoeste 0 912.4 -1.3 23
2017-07-19 16:00:00 32.3 14 Sudoeste 31 Sudoeste 0 912.9 -1.2 24
2017-07-19 15:00:00 31.8 14 Sudoeste 35 Sudoeste 0 913.3 -1 25
2017-07-19 14:00:00 31.3 16 Sudoeste 29 Sudoeste 0 913.7 -0.9 28
2017-07-19 13:00:00 30.9 14 Sudoeste 31 Sudoeste 0 914.1 -1 32
2017-07-19 12:00:00 28.5 8 Sudoeste 23 Sudoeste 0 914.3 -1 44
2017-07-19 11:00:00 27.2 9 Sudoeste 19 Sur 0 914.6 -0.7 41
2017-07-19 10:00:00 24.9 11 Sudoeste 21 Sudoeste 0 915.1 0.6 48
2017-07-19 09:00:00 22.2 8 Sudoeste 21 Sur 0 915.3 1 57
2017-07-19 08:00:00 19.6 13 Sudoeste 23 Sudoeste 0 915.3 0.9 66
2017-07-19 07:00:00 20.1 3 Sur 15 Sudoeste 0 914.5 -0.6 60
2017-07-19 06:00:00 21.1 10 Sudoeste 31 Sudoeste 0 914.3 -0.7 57
2017-07-19 05:00:00 21.6 19 Sur 49 Sur 0 914.4 -0.9 51
2017-07-19 04:00:00 20.5 13 Sur 26 Sur 0 915.1 0.7 62
2017-07-19 03:00:00 18.9 10 Sudeste 21 Sur 0 915 -0.5 77
2017-07-19 02:00:00 20.2 13 Sudoeste 29 Sur 0 915.3 -1 61
2017-07-19 01:00:00 21.1 19 Sur 57 Sur 0.2 914.4 -1.5 62
2017-07-19 00:00:00 20.6 9 Sudeste 33 Sudoeste 0 915.5 -0.1 65